sensor_id;sensor_type;location;lat;lon;timestamp;P1;durP1;ratioP1;P2;durP2;ratioP2
5821;SDS011;2937;48.562;8.022;2023-06-26T00:01:56;11.10;;;8.83;;
5821;SDS011;2937;48.562;8.022;2023-06-26T00:06:49;10.70;;;8.73;;
5821;SDS011;2937;48.562;8.022;2023-06-26T00:11:43;11.07;;;8.70;;
5821;SDS011;2937;48.562;8.022;2023-06-26T00:16:36;11.93;;;9.60;;
5821;SDS011;2937;48.562;8.022;2023-06-26T00:21:29;10.97;;;8.97;;
5821;SDS011;2937;48.562;8.022;2023-06-26T00:26:22;11.57;;;8.67;;
5821;SDS011;2937;48.562;8.022;2023-06-26T00:31:17;11.70;;;8.63;;
5821;SDS011;2937;48.562;8.022;2023-06-26T00:36:10;10.30;;;8.97;;
5821;SDS011;2937;48.562;8.022;2023-06-26T00:41:02;11.73;;;9.10;;
5821;SDS011;2937;48.562;8.022;2023-06-26T00:45:56;11.73;;;8.93;;
5821;SDS011;2937;48.562;8.022;2023-06-26T00:50:50;10.83;;;9.23;;
5821;SDS011;2937;48.562;8.022;2023-06-26T00:55:43;12.53;;;8.90;;
5821;SDS011;2937;48.562;8.022;2023-06-26T01:00:35;10.70;;;8.33;;
5821;SDS011;2937;48.562;8.022;2023-06-26T01:05:29;11.70;;;9.00;;
5821;SDS011;2937;48.562;8.022;2023-06-26T01:10:23;11.20;;;9.23;;
5821;SDS011;2937;48.562;8.022;2023-06-26T01:15:19;10.03;;;8.37;;
5821;SDS011;2937;48.562;8.022;2023-06-26T01:20:12;13.67;;;9.40;;
5821;SDS011;2937;48.562;8.022;2023-06-26T01:25:09;12.70;;;9.07;;
5821;SDS011;2937;48.562;8.022;2023-06-26T01:30:08;10.50;;;9.03;;
5821;SDS011;2937;48.562;8.022;2023-06-26T01:35:01;13.40;;;9.23;;
5821;SDS011;2937;48.562;8.022;2023-06-26T01:39:54;11.63;;;8.40;;
5821;SDS011;2937;48.562;8.022;2023-06-26T01:44:47;12.60;;;8.80;;
5821;SDS011;2937;48.562;8.022;2023-06-26T01:49:44;12.23;;;9.07;;
5821;SDS011;2937;48.562;8.022;2023-06-26T01:59:47;11.70;;;9.17;;
5821;SDS011;2937;48.562;8.022;2023-06-26T02:04:40;10.37;;;8.43;;
5821;SDS011;2937;48.562;8.022;2023-06-26T02:09:34;12.13;;;8.70;;
5821;SDS011;2937;48.562;8.022;2023-06-26T02:14:26;12.13;;;9.17;;
5821;SDS011;2937;48.562;8.022;2023-06-26T02:19:19;10.30;;;8.70;;
5821;SDS011;2937;48.562;8.022;2023-06-26T02:24:13;10.20;;;7.83;;
5821;SDS011;2937;48.562;8.022;2023-06-26T02:29:07;10.23;;;8.37;;
5821;SDS011;2937;48.562;8.022;2023-06-26T02:34:00;11.83;;;8.03;;
5821;SDS011;2937;48.562;8.022;2023-06-26T02:38:52;12.43;;;8.33;;
5821;SDS011;2937;48.562;8.022;2023-06-26T02:43:45;13.80;;;8.93;;
5821;SDS011;2937;48.562;8.022;2023-06-26T02:48:40;10.60;;;8.70;;
5821;SDS011;2937;48.562;8.022;2023-06-26T02:53:32;10.57;;;8.60;;
5821;SDS011;2937;48.562;8.022;2023-06-26T02:58:25;11.00;;;8.73;;
5821;SDS011;2937;48.562;8.022;2023-06-26T03:03:18;11.40;;;8.50;;
5821;SDS011;2937;48.562;8.022;2023-06-26T03:08:12;11.47;;;9.00;;
5821;SDS011;2937;48.562;8.022;2023-06-26T03:13:05;11.30;;;9.30;;
5821;SDS011;2937;48.562;8.022;2023-06-26T03:17:58;13.70;;;8.13;;
5821;SDS011;2937;48.562;8.022;2023-06-26T03:22:53;10.37;;;8.67;;
5821;SDS011;2937;48.562;8.022;2023-06-26T03:27:48;11.57;;;8.77;;
5821;SDS011;2937;48.562;8.022;2023-06-26T03:32:42;10.50;;;8.63;;
5821;SDS011;2937;48.562;8.022;2023-06-26T03:37:36;10.77;;;8.80;;
5821;SDS011;2937;48.562;8.022;2023-06-26T03:42:29;11.30;;;8.67;;
5821;SDS011;2937;48.562;8.022;2023-06-26T03:47:23;9.87;;;8.20;;
5821;SDS011;2937;48.562;8.022;2023-06-26T03:52:16;10.17;;;8.67;;
5821;SDS011;2937;48.562;8.022;2023-06-26T03:57:09;9.10;;;8.10;;
5821;SDS011;2937;48.562;8.022;2023-06-26T04:02:02;9.70;;;8.23;;
5821;SDS011;2937;48.562;8.022;2023-06-26T04:06:56;10.90;;;8.70;;
5821;SDS011;2937;48.562;8.022;2023-06-26T04:11:51;10.03;;;8.53;;
5821;SDS011;2937;48.562;8.022;2023-06-26T04:16:43;10.43;;;8.40;;
5821;SDS011;2937;48.562;8.022;2023-06-26T04:21:36;10.50;;;8.67;;
5821;SDS011;2937;48.562;8.022;2023-06-26T04:26:31;13.30;;;8.93;;
5821;SDS011;2937;48.562;8.022;2023-06-26T04:31:23;17.10;;;8.80;;
5821;SDS011;2937;48.562;8.022;2023-06-26T04:36:16;10.83;;;8.37;;
5821;SDS011;2937;48.562;8.022;2023-06-26T04:41:09;11.97;;;9.07;;
5821;SDS011;2937;48.562;8.022;2023-06-26T04:46:03;10.20;;;8.70;;
5821;SDS011;2937;48.562;8.022;2023-06-26T04:50:56;13.67;;;8.80;;
5821;SDS011;2937;48.562;8.022;2023-06-26T04:55:50;10.47;;;8.30;;
5821;SDS011;2937;48.562;8.022;2023-06-26T05:00:43;11.53;;;8.50;;
5821;SDS011;2937;48.562;8.022;2023-06-26T05:05:37;10.43;;;8.50;;
5821;SDS011;2937;48.562;8.022;2023-06-26T05:10:30;12.90;;;8.50;;
5821;SDS011;2937;48.562;8.022;2023-06-26T05:15:23;10.17;;;8.87;;
5821;SDS011;2937;48.562;8.022;2023-06-26T05:20:16;9.50;;;8.43;;
5821;SDS011;2937;48.562;8.022;2023-06-26T05:25:10;10.83;;;8.77;;
5821;SDS011;2937;48.562;8.022;2023-06-26T05:30:04;9.87;;;8.43;;
5821;SDS011;2937;48.562;8.022;2023-06-26T05:34:56;10.30;;;8.43;;
5821;SDS011;2937;48.562;8.022;2023-06-26T05:39:50;10.57;;;8.60;;
5821;SDS011;2937;48.562;8.022;2023-06-26T05:44:44;10.30;;;8.07;;
5821;SDS011;2937;48.562;8.022;2023-06-26T05:49:37;9.57;;;8.57;;
5821;SDS011;2937;48.562;8.022;2023-06-26T05:54:30;11.23;;;8.63;;
5821;SDS011;2937;48.562;8.022;2023-06-26T05:59:23;8.80;;;7.90;;
5821;SDS011;2937;48.562;8.022;2023-06-26T06:04:17;10.17;;;8.00;;
5821;SDS011;2937;48.562;8.022;2023-06-26T06:09:10;9.70;;;8.70;;
5821;SDS011;2937;48.562;8.022;2023-06-26T06:14:02;9.87;;;8.43;;
5821;SDS011;2937;48.562;8.022;2023-06-26T06:18:55;15.20;;;7.90;;
5821;SDS011;2937;48.562;8.022;2023-06-26T06:23:49;11.07;;;8.50;;
5821;SDS011;2937;48.562;8.022;2023-06-26T06:28:42;11.50;;;8.90;;
5821;SDS011;2937;48.562;8.022;2023-06-26T06:33:35;11.40;;;8.87;;
5821;SDS011;2937;48.562;8.022;2023-06-26T06:38:27;15.43;;;9.57;;
5821;SDS011;2937;48.562;8.022;2023-06-26T06:43:21;13.60;;;9.37;;
5821;SDS011;2937;48.562;8.022;2023-06-26T06:48:14;13.53;;;9.00;;
5821;SDS011;2937;48.562;8.022;2023-06-26T06:53:07;12.70;;;9.55;;
5821;SDS011;2937;48.562;8.022;2023-06-26T06:58:00;10.23;;;9.20;;
5821;SDS011;2937;48.562;8.022;2023-06-26T07:02:57;11.53;;;10.13;;
5821;SDS011;2937;48.562;8.022;2023-06-26T07:07:52;9.77;;;8.77;;
5821;SDS011;2937;48.562;8.022;2023-06-26T07:12:44;9.70;;;8.70;;
5821;SDS011;2937;48.562;8.022;2023-06-26T07:17:37;10.57;;;9.10;;
5821;SDS011;2937;48.562;8.022;2023-06-26T07:22:32;10.43;;;9.43;;
5821;SDS011;2937;48.562;8.022;2023-06-26T07:27:25;10.90;;;9.73;;
5821;SDS011;2937;48.562;8.022;2023-06-26T07:32:17;10.57;;;9.50;;
5821;SDS011;2937;48.562;8.022;2023-06-26T07:37:10;11.97;;;9.00;;
5821;SDS011;2937;48.562;8.022;2023-06-26T07:42:04;11.33;;;8.90;;
5821;SDS011;2937;48.562;8.022;2023-06-26T07:46:57;9.93;;;8.77;;
5821;SDS011;2937;48.562;8.022;2023-06-26T07:51:50;13.33;;;9.10;;
5821;SDS011;2937;48.562;8.022;2023-06-26T07:56:52;10.60;;;9.60;;
5821;SDS011;2937;48.562;8.022;2023-06-26T08:01:47;10.63;;;9.53;;
5821;SDS011;2937;48.562;8.022;2023-06-26T08:06:39;9.30;;;8.40;;
5821;SDS011;2937;48.562;8.022;2023-06-26T08:11:32;9.60;;;8.70;;
5821;SDS011;2937;48.562;8.022;2023-06-26T08:16:25;9.73;;;8.70;;
5821;SDS011;2937;48.562;8.022;2023-06-26T08:21:19;12.40;;;9.10;;
5821;SDS011;2937;48.562;8.022;2023-06-26T08:26:11;9.00;;;8.20;;
5821;SDS011;2937;48.562;8.022;2023-06-26T08:31:04;10.67;;;8.33;;
5821;SDS011;2937;48.562;8.022;2023-06-26T08:35:57;9.67;;;8.67;;
5821;SDS011;2937;48.562;8.022;2023-06-26T08:40:51;10.60;;;9.60;;
5821;SDS011;2937;48.562;8.022;2023-06-26T08:45:44;11.07;;;9.10;;
5821;SDS011;2937;48.562;8.022;2023-06-26T08:50:38;11.50;;;9.53;;
5821;SDS011;2937;48.562;8.022;2023-06-26T08:55:31;10.90;;;9.20;;
5821;SDS011;2937;48.562;8.022;2023-06-26T09:00:27;10.77;;;9.70;;
5821;SDS011;2937;48.562;8.022;2023-06-26T09:05:20;13.20;;;9.17;;
5821;SDS011;2937;48.562;8.022;2023-06-26T09:10:12;13.27;;;9.77;;
5821;SDS011;2937;48.562;8.022;2023-06-26T09:15:05;10.47;;;9.30;;
5821;SDS011;2937;48.562;8.022;2023-06-26T09:20:00;11.83;;;9.77;;
5821;SDS011;2937;48.562;8.022;2023-06-26T09:24:52;11.60;;;9.47;;
5821;SDS011;2937;48.562;8.022;2023-06-26T09:29:45;10.10;;;9.10;;
5821;SDS011;2937;48.562;8.022;2023-06-26T09:34:40;10.33;;;9.30;;
5821;SDS011;2937;48.562;8.022;2023-06-26T09:39:34;9.47;;;8.57;;
5821;SDS011;2937;48.562;8.022;2023-06-26T09:44:28;9.60;;;8.03;;
5821;SDS011;2937;48.562;8.022;2023-06-26T09:49:23;9.07;;;8.10;;
5821;SDS011;2937;48.562;8.022;2023-06-26T09:54:16;8.50;;;7.60;;
5821;SDS011;2937;48.562;8.022;2023-06-26T09:59:11;9.63;;;7.80;;
5821;SDS011;2937;48.562;8.022;2023-06-26T10:04:04;8.30;;;6.90;;
5821;SDS011;2937;48.562;8.022;2023-06-26T10:08:58;9.80;;;7.40;;
5821;SDS011;2937;48.562;8.022;2023-06-26T10:13:52;8.00;;;7.20;;
5821;SDS011;2937;48.562;8.022;2023-06-26T10:19:08;8.37;;;6.90;;
5821;SDS011;2937;48.562;8.022;2023-06-26T10:24:01;11.13;;;6.40;;
5821;SDS011;2937;48.562;8.022;2023-06-26T10:28:55;7.70;;;6.70;;
5821;SDS011;2937;48.562;8.022;2023-06-26T10:33:49;7.50;;;6.30;;
5821;SDS011;2937;48.562;8.022;2023-06-26T10:38:50;6.40;;;5.80;;
5821;SDS011;2937;48.562;8.022;2023-06-26T10:43:43;6.07;;;5.57;;
5821;SDS011;2937;48.562;8.022;2023-06-26T10:48:55;6.80;;;5.80;;
5821;SDS011;2937;48.562;8.022;2023-06-26T10:53:51;7.53;;;6.27;;
5821;SDS011;2937;48.562;8.022;2023-06-26T10:58:47;8.00;;;6.43;;
5821;SDS011;2937;48.562;8.022;2023-06-26T11:03:41;6.37;;;5.67;;
5821;SDS011;2937;48.562;8.022;2023-06-26T11:08:44;9.80;;;5.90;;
5821;SDS011;2937;48.562;8.022;2023-06-26T11:13:38;7.53;;;6.10;;
5821;SDS011;2937;48.562;8.022;2023-06-26T11:18:31;6.40;;;5.57;;
5821;SDS011;2937;48.562;8.022;2023-06-26T11:23:24;5.60;;;5.10;;
5821;SDS011;2937;48.562;8.022;2023-06-26T11:28:18;7.33;;;4.63;;
5821;SDS011;2937;48.562;8.022;2023-06-26T11:33:12;5.77;;;5.00;;
5821;SDS011;2937;48.562;8.022;2023-06-26T11:38:04;5.37;;;4.60;;
5821;SDS011;2937;48.562;8.022;2023-06-26T11:42:57;4.77;;;4.30;;
5821;SDS011;2937;48.562;8.022;2023-06-26T11:47:50;7.10;;;4.50;;
5821;SDS011;2937;48.562;8.022;2023-06-26T11:52:44;5.50;;;4.70;;
5821;SDS011;2937;48.562;8.022;2023-06-26T11:57:37;6.17;;;4.80;;
5821;SDS011;2937;48.562;8.022;2023-06-26T12:02:30;5.67;;;4.63;;
5821;SDS011;2937;48.562;8.022;2023-06-26T12:07:23;5.37;;;4.87;;
5821;SDS011;2937;48.562;8.022;2023-06-26T12:12:17;10.67;;;4.80;;
5821;SDS011;2937;48.562;8.022;2023-06-26T12:17:11;6.30;;;4.37;;
5821;SDS011;2937;48.562;8.022;2023-06-26T12:22:08;5.47;;;4.17;;
5821;SDS011;2937;48.562;8.022;2023-06-26T12:27:01;4.40;;;4.00;;
5821;SDS011;2937;48.562;8.022;2023-06-26T12:31:55;4.63;;;4.00;;
5821;SDS011;2937;48.562;8.022;2023-06-26T12:36:49;5.50;;;4.60;;
5821;SDS011;2937;48.562;8.022;2023-06-26T12:41:45;6.80;;;5.00;;
5821;SDS011;2937;48.562;8.022;2023-06-26T12:46:37;6.07;;;4.60;;
5821;SDS011;2937;48.562;8.022;2023-06-26T12:51:32;5.30;;;4.27;;
5821;SDS011;2937;48.562;8.022;2023-06-26T12:56:24;6.90;;;4.70;;
5821;SDS011;2937;48.562;8.022;2023-06-26T13:01:17;5.23;;;4.57;;
5821;SDS011;2937;48.562;8.022;2023-06-26T13:06:12;5.60;;;4.40;;
5821;SDS011;2937;48.562;8.022;2023-06-26T13:11:07;6.67;;;4.40;;
5821;SDS011;2937;48.562;8.022;2023-06-26T13:16:00;6.00;;;4.50;;
5821;SDS011;2937;48.562;8.022;2023-06-26T13:20:53;6.07;;;5.10;;
5821;SDS011;2937;48.562;8.022;2023-06-26T13:25:46;6.70;;;4.33;;
5821;SDS011;2937;48.562;8.022;2023-06-26T13:30:40;9.87;;;4.67;;
5821;SDS011;2937;48.562;8.022;2023-06-26T13:35:32;5.17;;;4.50;;
5821;SDS011;2937;48.562;8.022;2023-06-26T13:40:25;5.30;;;4.50;;
5821;SDS011;2937;48.562;8.022;2023-06-26T13:45:18;6.60;;;5.07;;
5821;SDS011;2937;48.562;8.022;2023-06-26T13:50:23;8.40;;;5.50;;
5821;SDS011;2937;48.562;8.022;2023-06-26T13:55:16;7.27;;;5.47;;
5821;SDS011;2937;48.562;8.022;2023-06-26T14:00:09;6.10;;;5.50;;
5821;SDS011;2937;48.562;8.022;2023-06-26T14:05:03;8.53;;;5.60;;
5821;SDS011;2937;48.562;8.022;2023-06-26T14:09:58;13.23;;;6.00;;
5821;SDS011;2937;48.562;8.022;2023-06-26T14:14:50;7.00;;;5.83;;
5821;SDS011;2937;48.562;8.022;2023-06-26T14:19:43;12.80;;;6.10;;
5821;SDS011;2937;48.562;8.022;2023-06-26T14:24:37;9.23;;;6.93;;
5821;SDS011;2937;48.562;8.022;2023-06-26T14:29:31;9.17;;;6.87;;
5821;SDS011;2937;48.562;8.022;2023-06-26T14:34:23;8.27;;;6.50;;
5821;SDS011;2937;48.562;8.022;2023-06-26T14:39:16;9.50;;;6.70;;
5821;SDS011;2937;48.562;8.022;2023-06-26T14:44:09;8.10;;;7.30;;
5821;SDS011;2937;48.562;8.022;2023-06-26T14:49:04;10.30;;;7.77;;
5821;SDS011;2937;48.562;8.022;2023-06-26T14:53:57;7.63;;;6.83;;
5821;SDS011;2937;48.562;8.022;2023-06-26T14:58:49;13.47;;;7.50;;
5821;SDS011;2937;48.562;8.022;2023-06-26T15:03:43;9.17;;;6.97;;
5821;SDS011;2937;48.562;8.022;2023-06-26T15:08:37;8.33;;;6.80;;
5821;SDS011;2937;48.562;8.022;2023-06-26T15:13:30;9.30;;;6.23;;
5821;SDS011;2937;48.562;8.022;2023-06-26T15:18:23;10.43;;;6.23;;
5821;SDS011;2937;48.562;8.022;2023-06-26T15:23:15;8.27;;;5.10;;
5821;SDS011;2937;48.562;8.022;2023-06-26T15:28:09;9.10;;;4.70;;
5821;SDS011;2937;48.562;8.022;2023-06-26T15:33:04;10.03;;;3.90;;
5821;SDS011;2937;48.562;8.022;2023-06-26T15:37:57;5.47;;;3.57;;
5821;SDS011;2937;48.562;8.022;2023-06-26T15:42:50;3.43;;;2.80;;
5821;SDS011;2937;48.562;8.022;2023-06-26T15:47:45;4.23;;;2.53;;
5821;SDS011;2937;48.562;8.022;2023-06-26T15:52:38;6.13;;;2.90;;
5821;SDS011;2937;48.562;8.022;2023-06-26T15:57:31;7.67;;;2.90;;
5821;SDS011;2937;48.562;8.022;2023-06-26T16:02:24;11.00;;;3.10;;
5821;SDS011;2937;48.562;8.022;2023-06-26T16:07:18;4.40;;;3.30;;
5821;SDS011;2937;48.562;8.022;2023-06-26T16:12:15;3.90;;;2.50;;
5821;SDS011;2937;48.562;8.022;2023-06-26T16:17:08;10.80;;;3.00;;
5821;SDS011;2937;48.562;8.022;2023-06-26T16:22:00;11.00;;;2.93;;
5821;SDS011;2937;48.562;8.022;2023-06-26T16:26:55;6.90;;;2.83;;
5821;SDS011;2937;48.562;8.022;2023-06-26T16:31:47;5.67;;;2.70;;
5821;SDS011;2937;48.562;8.022;2023-06-26T16:36:40;7.60;;;2.40;;
5821;SDS011;2937;48.562;8.022;2023-06-26T16:41:34;7.37;;;2.90;;
5821;SDS011;2937;48.562;8.022;2023-06-26T16:46:29;3.30;;;2.40;;
5821;SDS011;2937;48.562;8.022;2023-06-26T16:51:21;4.30;;;2.53;;
5821;SDS011;2937;48.562;8.022;2023-06-26T16:56:17;6.93;;;2.20;;
5821;SDS011;2937;48.562;8.022;2023-06-26T17:01:12;4.07;;;2.80;;
5821;SDS011;2937;48.562;8.022;2023-06-26T17:06:06;5.23;;;2.20;;
5821;SDS011;2937;48.562;8.022;2023-06-26T17:11:00;4.93;;;2.10;;
5821;SDS011;2937;48.562;8.022;2023-06-26T17:15:53;6.10;;;2.60;;
5821;SDS011;2937;48.562;8.022;2023-06-26T17:20:46;4.70;;;2.50;;
5821;SDS011;2937;48.562;8.022;2023-06-26T17:25:40;4.70;;;2.43;;
5821;SDS011;2937;48.562;8.022;2023-06-26T17:30:33;3.60;;;2.10;;
5821;SDS011;2937;48.562;8.022;2023-06-26T17:35:26;4.73;;;2.60;;
5821;SDS011;2937;48.562;8.022;2023-06-26T17:40:19;5.57;;;2.30;;
5821;SDS011;2937;48.562;8.022;2023-06-26T17:45:13;3.60;;;2.23;;
5821;SDS011;2937;48.562;8.022;2023-06-26T17:50:06;4.40;;;1.97;;
5821;SDS011;2937;48.562;8.022;2023-06-26T17:54:59;2.73;;;1.93;;
5821;SDS011;2937;48.562;8.022;2023-06-26T17:59:52;4.73;;;2.67;;
5821;SDS011;2937;48.562;8.022;2023-06-26T18:04:47;3.73;;;2.40;;
5821;SDS011;2937;48.562;8.022;2023-06-26T18:09:40;4.57;;;2.63;;
5821;SDS011;2937;48.562;8.022;2023-06-26T18:14:32;11.60;;;2.30;;
5821;SDS011;2937;48.562;8.022;2023-06-26T18:19:25;4.10;;;2.23;;
5821;SDS011;2937;48.562;8.022;2023-06-26T18:24:19;6.87;;;2.30;;
5821;SDS011;2937;48.562;8.022;2023-06-26T18:29:13;7.90;;;2.77;;
5821;SDS011;2937;48.562;8.022;2023-06-26T18:34:06;4.67;;;2.27;;
5821;SDS011;2937;48.562;8.022;2023-06-26T18:38:59;5.70;;;3.07;;
5821;SDS011;2937;48.562;8.022;2023-06-26T18:43:53;4.63;;;2.50;;
5821;SDS011;2937;48.562;8.022;2023-06-26T18:48:45;4.60;;;2.57;;
5821;SDS011;2937;48.562;8.022;2023-06-26T18:53:38;5.97;;;2.10;;
5821;SDS011;2937;48.562;8.022;2023-06-26T18:58:32;4.20;;;2.30;;
5821;SDS011;2937;48.562;8.022;2023-06-26T19:03:27;5.27;;;2.40;;
5821;SDS011;2937;48.562;8.022;2023-06-26T19:08:20;5.73;;;2.33;;
5821;SDS011;2937;48.562;8.022;2023-06-26T19:13:13;7.70;;;2.90;;
5821;SDS011;2937;48.562;8.022;2023-06-26T19:18:05;4.07;;;2.33;;
5821;SDS011;2937;48.562;8.022;2023-06-26T19:22:59;4.80;;;2.43;;
5821;SDS011;2937;48.562;8.022;2023-06-26T19:27:52;4.10;;;2.40;;
5821;SDS011;2937;48.562;8.022;2023-06-26T19:32:45;4.67;;;2.27;;
5821;SDS011;2937;48.562;8.022;2023-06-26T19:37:38;3.83;;;2.37;;
5821;SDS011;2937;48.562;8.022;2023-06-26T19:42:52;4.20;;;2.60;;
5821;SDS011;2937;48.562;8.022;2023-06-26T19:47:45;7.70;;;3.00;;
5821;SDS011;2937;48.562;8.022;2023-06-26T19:52:37;6.47;;;2.40;;
5821;SDS011;2937;48.562;8.022;2023-06-26T19:57:30;5.80;;;2.80;;
5821;SDS011;2937;48.562;8.022;2023-06-26T20:02:24;4.50;;;2.70;;
5821;SDS011;2937;48.562;8.022;2023-06-26T20:07:17;4.30;;;2.70;;
5821;SDS011;2937;48.562;8.022;2023-06-26T20:12:09;5.53;;;2.30;;
5821;SDS011;2937;48.562;8.022;2023-06-26T20:17:02;4.10;;;2.63;;
5821;SDS011;2937;48.562;8.022;2023-06-26T20:21:57;6.33;;;2.80;;
5821;SDS011;2937;48.562;8.022;2023-06-26T20:26:50;7.77;;;3.10;;
5821;SDS011;2937;48.562;8.022;2023-06-26T20:31:42;4.53;;;2.73;;
5821;SDS011;2937;48.562;8.022;2023-06-26T20:36:35;7.93;;;3.13;;
5821;SDS011;2937;48.562;8.022;2023-06-26T20:41:29;5.73;;;2.50;;
5821;SDS011;2937;48.562;8.022;2023-06-26T20:46:22;6.13;;;2.90;;
5821;SDS011;2937;48.562;8.022;2023-06-26T20:51:23;7.10;;;2.67;;
5821;SDS011;2937;48.562;8.022;2023-06-26T20:56:16;6.40;;;2.53;;
5821;SDS011;2937;48.562;8.022;2023-06-26T21:01:11;7.23;;;3.30;;
5821;SDS011;2937;48.562;8.022;2023-06-26T21:06:04;5.50;;;2.77;;
5821;SDS011;2937;48.562;8.022;2023-06-26T21:10:56;6.90;;;2.97;;
5821;SDS011;2937;48.562;8.022;2023-06-26T21:15:49;4.77;;;2.70;;
5821;SDS011;2937;48.562;8.022;2023-06-26T21:20:43;5.43;;;2.80;;
5821;SDS011;2937;48.562;8.022;2023-06-26T21:25:37;8.03;;;3.10;;
5821;SDS011;2937;48.562;8.022;2023-06-26T21:30:30;3.47;;;2.30;;
5821;SDS011;2937;48.562;8.022;2023-06-26T21:35:23;13.20;;;3.10;;
5821;SDS011;2937;48.562;8.022;2023-06-26T21:40:35;8.77;;;2.90;;
5821;SDS011;2937;48.562;8.022;2023-06-26T21:45:28;5.53;;;2.50;;
5821;SDS011;2937;48.562;8.022;2023-06-26T21:50:20;6.47;;;2.67;;
5821;SDS011;2937;48.562;8.022;2023-06-26T21:55:13;9.03;;;2.90;;
5821;SDS011;2937;48.562;8.022;2023-06-26T22:00:07;6.77;;;3.27;;
5821;SDS011;2937;48.562;8.022;2023-06-26T22:05:04;4.20;;;2.57;;
5821;SDS011;2937;48.562;8.022;2023-06-26T22:09:57;6.37;;;3.07;;
5821;SDS011;2937;48.562;8.022;2023-06-26T22:14:50;4.37;;;2.60;;
5821;SDS011;2937;48.562;8.022;2023-06-26T22:19:44;7.90;;;2.90;;
5821;SDS011;2937;48.562;8.022;2023-06-26T22:24:37;6.23;;;2.40;;
5821;SDS011;2937;48.562;8.022;2023-06-26T22:29:29;6.90;;;2.90;;
5821;SDS011;2937;48.562;8.022;2023-06-26T22:34:22;4.53;;;2.60;;
5821;SDS011;2937;48.562;8.022;2023-06-26T22:39:16;5.83;;;3.20;;
5821;SDS011;2937;48.562;8.022;2023-06-26T22:44:09;5.33;;;2.90;;
5821;SDS011;2937;48.562;8.022;2023-06-26T22:49:02;5.80;;;2.73;;
5821;SDS011;2937;48.562;8.022;2023-06-26T22:53:55;4.90;;;2.83;;
5821;SDS011;2937;48.562;8.022;2023-06-26T22:58:49;6.30;;;3.00;;
5821;SDS011;2937;48.562;8.022;2023-06-26T23:03:42;7.27;;;3.00;;
5821;SDS011;2937;48.562;8.022;2023-06-26T23:08:35;7.13;;;2.60;;
5821;SDS011;2937;48.562;8.022;2023-06-26T23:13:28;6.57;;;2.50;;
5821;SDS011;2937;48.562;8.022;2023-06-26T23:18:22;5.47;;;2.90;;
5821;SDS011;2937;48.562;8.022;2023-06-26T23:23:15;8.93;;;3.00;;
5821;SDS011;2937;48.562;8.022;2023-06-26T23:28:07;5.87;;;3.20;;
5821;SDS011;2937;48.562;8.022;2023-06-26T23:33:00;6.77;;;2.90;;
5821;SDS011;2937;48.562;8.022;2023-06-26T23:37:57;7.90;;;3.17;;
5821;SDS011;2937;48.562;8.022;2023-06-26T23:42:52;5.10;;;2.80;;
5821;SDS011;2937;48.562;8.022;2023-06-26T23:47:45;6.63;;;3.03;;
5821;SDS011;2937;48.562;8.022;2023-06-26T23:52:38;6.63;;;3.30;;
5821;SDS011;2937;48.562;8.022;2023-06-26T23:57:33;6.67;;;3.40;;
